sensor_id;sensor_type;location;lat;lon;timestamp;temperature;humidity
73572;DHT22;61854;48.510;-2.770;2022-11-06T00:01:29;13.50;97.80
73572;DHT22;61854;48.510;-2.770;2022-11-06T00:03:56;13.50;97.90
73572;DHT22;61854;48.510;-2.770;2022-11-06T00:06:21;13.50;97.70
73572;DHT22;61854;48.510;-2.770;2022-11-06T00:09:08;13.50;97.90
73572;DHT22;61854;48.510;-2.770;2022-11-06T00:11:34;13.50;97.90
73572;DHT22;61854;48.510;-2.770;2022-11-06T00:14:00;13.50;97.90
73572;DHT22;61854;48.510;-2.770;2022-11-06T00:16:27;13.50;97.90
73572;DHT22;61854;48.510;-2.770;2022-11-06T00:18:53;13.50;98.00
73572;DHT22;61854;48.510;-2.770;2022-11-06T00:21:21;13.50;98.00
73572;DHT22;61854;48.510;-2.770;2022-11-06T00:23:47;13.50;98.20
73572;DHT22;61854;48.510;-2.770;2022-11-06T00:26:15;13.50;98.30
73572;DHT22;61854;48.510;-2.770;2022-11-06T00:28:41;13.50;98.30
73572;DHT22;61854;48.510;-2.770;2022-11-06T00:31:10;13.50;98.40
73572;DHT22;61854;48.510;-2.770;2022-11-06T00:33:37;13.50;98.50
73572;DHT22;61854;48.510;-2.770;2022-11-06T00:36:04;13.50;98.50
73572;DHT22;61854;48.510;-2.770;2022-11-06T00:38:30;13.50;98.50
73572;DHT22;61854;48.510;-2.770;2022-11-06T00:40:56;13.50;98.50
73572;DHT22;61854;48.510;-2.770;2022-11-06T00:43:22;13.50;98.50
73572;DHT22;61854;48.510;-2.770;2022-11-06T00:45:47;13.50;98.50
73572;DHT22;61854;48.510;-2.770;2022-11-06T00:48:13;13.50;98.40
73572;DHT22;61854;48.510;-2.770;2022-11-06T00:50:39;13.50;98.40
73572;DHT22;61854;48.510;-2.770;2022-11-06T00:53:04;13.50;98.20
73572;DHT22;61854;48.510;-2.770;2022-11-06T00:55:30;13.60;98.20
73572;DHT22;61854;48.510;-2.770;2022-11-06T00:57:57;13.60;98.30
73572;DHT22;61854;48.510;-2.770;2022-11-06T01:00:22;13.60;98.20
73572;DHT22;61854;48.510;-2.770;2022-11-06T01:02:48;13.60;98.20
73572;DHT22;61854;48.510;-2.770;2022-11-06T01:05:14;13.60;98.30
73572;DHT22;61854;48.510;-2.770;2022-11-06T01:07:40;13.60;98.20
73572;DHT22;61854;48.510;-2.770;2022-11-06T01:10:06;13.60;98.30
73572;DHT22;61854;48.510;-2.770;2022-11-06T01:12:33;13.60;98.30
73572;DHT22;61854;48.510;-2.770;2022-11-06T01:15:02;13.60;98.40
73572;DHT22;61854;48.510;-2.770;2022-11-06T01:17:28;13.60;98.30
73572;DHT22;61854;48.510;-2.770;2022-11-06T01:19:53;13.60;98.30
73572;DHT22;61854;48.510;-2.770;2022-11-06T01:22:19;13.60;98.50
73572;DHT22;61854;48.510;-2.770;2022-11-06T01:24:45;13.60;98.40
73572;DHT22;61854;48.510;-2.770;2022-11-06T01:27:10;13.60;98.40
73572;DHT22;61854;48.510;-2.770;2022-11-06T01:29:36;13.60;98.50
73572;DHT22;61854;48.510;-2.770;2022-11-06T01:32:02;13.60;98.50
73572;DHT22;61854;48.510;-2.770;2022-11-06T01:34:28;13.60;98.40
73572;DHT22;61854;48.510;-2.770;2022-11-06T01:36:53;13.60;98.40
73572;DHT22;61854;48.510;-2.770;2022-11-06T01:39:19;13.60;98.30
73572;DHT22;61854;48.510;-2.770;2022-11-06T01:41:47;13.60;98.30
73572;DHT22;61854;48.510;-2.770;2022-11-06T01:49:46;13.70;98.20
73572;DHT22;61854;48.510;-2.770;2022-11-06T01:52:13;13.70;98.20
73572;DHT22;61854;48.510;-2.770;2022-11-06T01:54:42;13.70;98.10
73572;DHT22;61854;48.510;-2.770;2022-11-06T01:57:08;13.70;98.00
73572;DHT22;61854;48.510;-2.770;2022-11-06T01:59:37;13.60;98.00
73572;DHT22;61854;48.510;-2.770;2022-11-06T02:02:04;13.70;98.00
73572;DHT22;61854;48.510;-2.770;2022-11-06T02:04:40;13.70;98.00
73572;DHT22;61854;48.510;-2.770;2022-11-06T02:07:06;13.70;98.00
73572;DHT22;61854;48.510;-2.770;2022-11-06T02:09:33;13.60;97.90
73572;DHT22;61854;48.510;-2.770;2022-11-06T02:12:13;13.60;98.00
73572;DHT22;61854;48.510;-2.770;2022-11-06T02:15:02;13.70;98.00
73572;DHT22;61854;48.510;-2.770;2022-11-06T02:18:06;13.60;97.90
73572;DHT22;61854;48.510;-2.770;2022-11-06T02:23:47;13.60;98.00
73572;DHT22;61854;48.510;-2.770;2022-11-06T02:29:36;13.70;98.10
73572;DHT22;61854;48.510;-2.770;2022-11-06T02:32:34;13.70;98.10
73572;DHT22;61854;48.510;-2.770;2022-11-06T02:35:03;13.60;98.20
73572;DHT22;61854;48.510;-2.770;2022-11-06T02:37:36;13.60;98.30
73572;DHT22;61854;48.510;-2.770;2022-11-06T02:40:05;13.60;98.30
73572;DHT22;61854;48.510;-2.770;2022-11-06T02:42:34;13.60;98.30
73572;DHT22;61854;48.510;-2.770;2022-11-06T02:45:02;13.60;98.40
73572;DHT22;61854;48.510;-2.770;2022-11-06T02:47:30;13.70;98.40
73572;DHT22;61854;48.510;-2.770;2022-11-06T02:50:05;13.70;98.30
73572;DHT22;61854;48.510;-2.770;2022-11-06T02:52:37;13.70;98.40
73572;DHT22;61854;48.510;-2.770;2022-11-06T02:55:16;13.70;98.50
73572;DHT22;61854;48.510;-2.770;2022-11-06T02:57:48;13.70;98.50
73572;DHT22;61854;48.510;-2.770;2022-11-06T03:00:16;13.70;98.50
73572;DHT22;61854;48.510;-2.770;2022-11-06T03:02:57;13.70;98.60
73572;DHT22;61854;48.510;-2.770;2022-11-06T03:05:34;13.70;98.50
73572;DHT22;61854;48.510;-2.770;2022-11-06T03:08:08;13.70;98.60
73572;DHT22;61854;48.510;-2.770;2022-11-06T03:10:51;13.70;98.60
73572;DHT22;61854;48.510;-2.770;2022-11-06T03:13:41;13.70;98.60
73572;DHT22;61854;48.510;-2.770;2022-11-06T03:16:36;13.70;98.60
73572;DHT22;61854;48.510;-2.770;2022-11-06T03:22:06;13.70;98.60
73572;DHT22;61854;48.510;-2.770;2022-11-06T03:25:01;13.70;98.70
73572;DHT22;61854;48.510;-2.770;2022-11-06T03:27:46;13.70;98.70
73572;DHT22;61854;48.510;-2.770;2022-11-06T03:30:14;13.70;98.70
73572;DHT22;61854;48.510;-2.770;2022-11-06T03:32:49;13.70;98.70
73572;DHT22;61854;48.510;-2.770;2022-11-06T03:35:25;13.60;98.80
73572;DHT22;61854;48.510;-2.770;2022-11-06T03:40:20;13.70;98.90
73572;DHT22;61854;48.510;-2.770;2022-11-06T03:42:46;13.70;99.00
73572;DHT22;61854;48.510;-2.770;2022-11-06T03:45:17;13.70;99.00
73572;DHT22;61854;48.510;-2.770;2022-11-06T03:47:52;13.70;98.90
73572;DHT22;61854;48.510;-2.770;2022-11-06T03:53:44;13.70;99.10
73572;DHT22;61854;48.510;-2.770;2022-11-06T03:56:17;13.80;99.10
73572;DHT22;61854;48.510;-2.770;2022-11-06T03:58:49;13.80;99.00
73572;DHT22;61854;48.510;-2.770;2022-11-06T04:01:20;13.80;99.00
73572;DHT22;61854;48.510;-2.770;2022-11-06T04:03:57;13.80;99.00
73572;DHT22;61854;48.510;-2.770;2022-11-06T04:06:25;13.80;99.00
73572;DHT22;61854;48.510;-2.770;2022-11-06T04:08:57;13.80;99.00
73572;DHT22;61854;48.510;-2.770;2022-11-06T04:11:43;13.80;99.00
73572;DHT22;61854;48.510;-2.770;2022-11-06T04:14:29;13.80;99.00
73572;DHT22;61854;48.510;-2.770;2022-11-06T04:16:57;13.80;99.00
73572;DHT22;61854;48.510;-2.770;2022-11-06T04:19:23;13.80;99.10
73572;DHT22;61854;48.510;-2.770;2022-11-06T04:27:34;13.90;99.10
73572;DHT22;61854;48.510;-2.770;2022-11-06T04:30:06;13.90;99.10
73572;DHT22;61854;48.510;-2.770;2022-11-06T04:40:56;14.00;99.10
73572;DHT22;61854;48.510;-2.770;2022-11-06T04:46:00;14.00;99.10
73572;DHT22;61854;48.510;-2.770;2022-11-06T04:48:27;14.00;99.10
73572;DHT22;61854;48.510;-2.770;2022-11-06T04:50:56;14.10;99.20
73572;DHT22;61854;48.510;-2.770;2022-11-06T04:53:23;14.10;99.10
73572;DHT22;61854;48.510;-2.770;2022-11-06T04:55:53;14.10;99.10
73572;DHT22;61854;48.510;-2.770;2022-11-06T04:58:18;14.00;99.10
73572;DHT22;61854;48.510;-2.770;2022-11-06T05:00:46;14.10;99.20
73572;DHT22;61854;48.510;-2.770;2022-11-06T05:03:13;14.10;99.20
73572;DHT22;61854;48.510;-2.770;2022-11-06T05:05:39;14.00;99.10
73572;DHT22;61854;48.510;-2.770;2022-11-06T05:08:04;14.10;99.20
73572;DHT22;61854;48.510;-2.770;2022-11-06T05:10:30;14.10;99.30
73572;DHT22;61854;48.510;-2.770;2022-11-06T05:12:55;14.10;99.20
73572;DHT22;61854;48.510;-2.770;2022-11-06T05:15:21;14.10;99.20
73572;DHT22;61854;48.510;-2.770;2022-11-06T05:17:46;14.10;99.20
73572;DHT22;61854;48.510;-2.770;2022-11-06T05:20:12;14.10;99.60
73572;DHT22;61854;48.510;-2.770;2022-11-06T05:22:42;14.10;99.20
73572;DHT22;61854;48.510;-2.770;2022-11-06T05:25:32;14.10;99.20
73572;DHT22;61854;48.510;-2.770;2022-11-06T05:27:58;14.10;99.10
73572;DHT22;61854;48.510;-2.770;2022-11-06T05:30:24;14.20;99.20
73572;DHT22;61854;48.510;-2.770;2022-11-06T05:32:50;14.10;99.20
73572;DHT22;61854;48.510;-2.770;2022-11-06T05:35:17;14.20;99.20
73572;DHT22;61854;48.510;-2.770;2022-11-06T05:37:43;14.20;99.20
73572;DHT22;61854;48.510;-2.770;2022-11-06T05:40:09;14.20;99.70
73572;DHT22;61854;48.510;-2.770;2022-11-06T05:42:42;14.20;99.30
73572;DHT22;61854;48.510;-2.770;2022-11-06T05:45:09;14.30;99.30
73572;DHT22;61854;48.510;-2.770;2022-11-06T05:47:39;14.20;99.30
73572;DHT22;61854;48.510;-2.770;2022-11-06T05:50:06;14.20;99.30
73572;DHT22;61854;48.510;-2.770;2022-11-06T05:52:33;14.20;99.20
73572;DHT22;61854;48.510;-2.770;2022-11-06T05:54:59;14.10;99.00
73572;DHT22;61854;48.510;-2.770;2022-11-06T05:57:25;14.00;98.30
73572;DHT22;61854;48.510;-2.770;2022-11-06T05:59:50;13.80;97.30
73572;DHT22;61854;48.510;-2.770;2022-11-06T06:02:16;13.60;96.80
73572;DHT22;61854;48.510;-2.770;2022-11-06T06:04:41;13.40;97.00
73572;DHT22;61854;48.510;-2.770;2022-11-06T06:07:07;13.30;97.30
73572;DHT22;61854;48.510;-2.770;2022-11-06T06:09:33;13.20;97.40
73572;DHT22;61854;48.510;-2.770;2022-11-06T06:11:58;13.10;97.40
73572;DHT22;61854;48.510;-2.770;2022-11-06T06:14:24;13.00;96.80
73572;DHT22;61854;48.510;-2.770;2022-11-06T06:16:50;12.90;96.40
73572;DHT22;61854;48.510;-2.770;2022-11-06T06:19:15;12.80;96.60
73572;DHT22;61854;48.510;-2.770;2022-11-06T06:21:41;12.80;96.80
73572;DHT22;61854;48.510;-2.770;2022-11-06T06:24:07;12.80;97.10
73572;DHT22;61854;48.510;-2.770;2022-11-06T06:26:32;12.70;97.40
73572;DHT22;61854;48.510;-2.770;2022-11-06T06:28:58;12.70;97.60
73572;DHT22;61854;48.510;-2.770;2022-11-06T06:31:24;12.70;97.70
73572;DHT22;61854;48.510;-2.770;2022-11-06T06:33:49;12.70;97.80
73572;DHT22;61854;48.510;-2.770;2022-11-06T06:36:15;12.70;98.00
73572;DHT22;61854;48.510;-2.770;2022-11-06T06:38:41;12.70;98.10
73572;DHT22;61854;48.510;-2.770;2022-11-06T06:41:07;12.70;98.10
73572;DHT22;61854;48.510;-2.770;2022-11-06T06:43:33;12.70;98.30
73572;DHT22;61854;48.510;-2.770;2022-11-06T06:46:04;12.70;98.30
73572;DHT22;61854;48.510;-2.770;2022-11-06T06:48:30;12.70;98.20
73572;DHT22;61854;48.510;-2.770;2022-11-06T06:50:57;12.70;98.30
73572;DHT22;61854;48.510;-2.770;2022-11-06T06:53:22;12.70;98.20
73572;DHT22;61854;48.510;-2.770;2022-11-06T06:55:48;12.60;98.20
73572;DHT22;61854;48.510;-2.770;2022-11-06T06:58:14;12.70;98.40
73572;DHT22;61854;48.510;-2.770;2022-11-06T07:00:39;12.70;98.50
73572;DHT22;61854;48.510;-2.770;2022-11-06T07:03:05;12.70;98.50
73572;DHT22;61854;48.510;-2.770;2022-11-06T07:05:31;12.70;98.60
73572;DHT22;61854;48.510;-2.770;2022-11-06T07:07:56;12.70;98.40
73572;DHT22;61854;48.510;-2.770;2022-11-06T07:10:22;12.70;98.50
73572;DHT22;61854;48.510;-2.770;2022-11-06T07:12:47;12.60;98.40
73572;DHT22;61854;48.510;-2.770;2022-11-06T07:15:13;12.60;98.40
73572;DHT22;61854;48.510;-2.770;2022-11-06T07:17:39;12.60;98.50
73572;DHT22;61854;48.510;-2.770;2022-11-06T07:20:06;12.60;98.40
73572;DHT22;61854;48.510;-2.770;2022-11-06T07:22:32;12.60;98.40
73572;DHT22;61854;48.510;-2.770;2022-11-06T07:24:58;12.60;98.40
73572;DHT22;61854;48.510;-2.770;2022-11-06T07:27:24;12.60;98.90
73572;DHT22;61854;48.510;-2.770;2022-11-06T07:29:49;12.60;98.50
73572;DHT22;61854;48.510;-2.770;2022-11-06T07:32:15;12.60;98.50
73572;DHT22;61854;48.510;-2.770;2022-11-06T07:34:43;12.60;98.50
73572;DHT22;61854;48.510;-2.770;2022-11-06T07:37:09;12.60;98.50
73572;DHT22;61854;48.510;-2.770;2022-11-06T07:39:35;12.60;98.40
73572;DHT22;61854;48.510;-2.770;2022-11-06T07:42:03;12.60;98.40
73572;DHT22;61854;48.510;-2.770;2022-11-06T07:44:29;12.60;98.40
73572;DHT22;61854;48.510;-2.770;2022-11-06T07:46:54;12.60;98.40
73572;DHT22;61854;48.510;-2.770;2022-11-06T07:49:20;12.60;98.30
73572;DHT22;61854;48.510;-2.770;2022-11-06T07:51:46;12.60;98.40
73572;DHT22;61854;48.510;-2.770;2022-11-06T07:54:11;12.60;98.30
73572;DHT22;61854;48.510;-2.770;2022-11-06T07:56:37;12.60;98.30
73572;DHT22;61854;48.510;-2.770;2022-11-06T07:59:03;12.60;98.30
73572;DHT22;61854;48.510;-2.770;2022-11-06T08:01:29;12.60;98.40
73572;DHT22;61854;48.510;-2.770;2022-11-06T08:03:55;12.60;98.40
73572;DHT22;61854;48.510;-2.770;2022-11-06T08:06:21;12.60;98.40
73572;DHT22;61854;48.510;-2.770;2022-11-06T08:08:46;12.70;98.40
73572;DHT22;61854;48.510;-2.770;2022-11-06T08:11:13;12.60;98.40
73572;DHT22;61854;48.510;-2.770;2022-11-06T08:13:38;12.60;98.50
73572;DHT22;61854;48.510;-2.770;2022-11-06T08:16:06;12.70;98.60
73572;DHT22;61854;48.510;-2.770;2022-11-06T08:18:32;12.70;98.70
73572;DHT22;61854;48.510;-2.770;2022-11-06T08:20:58;12.70;98.60
73572;DHT22;61854;48.510;-2.770;2022-11-06T08:23:24;12.60;98.70
73572;DHT22;61854;48.510;-2.770;2022-11-06T08:25:58;12.60;98.60
73572;DHT22;61854;48.510;-2.770;2022-11-06T08:28:25;12.60;98.70
73572;DHT22;61854;48.510;-2.770;2022-11-06T08:30:51;12.70;98.70
73572;DHT22;61854;48.510;-2.770;2022-11-06T08:33:18;12.70;98.70
73572;DHT22;61854;48.510;-2.770;2022-11-06T08:35:43;12.70;98.70
73572;DHT22;61854;48.510;-2.770;2022-11-06T08:38:09;12.70;98.80
73572;DHT22;61854;48.510;-2.770;2022-11-06T08:40:36;12.70;98.80
73572;DHT22;61854;48.510;-2.770;2022-11-06T08:43:04;12.70;98.80
73572;DHT22;61854;48.510;-2.770;2022-11-06T08:45:30;12.80;98.80
73572;DHT22;61854;48.510;-2.770;2022-11-06T08:48:02;12.80;98.80
73572;DHT22;61854;48.510;-2.770;2022-11-06T08:50:30;12.80;98.90
73572;DHT22;61854;48.510;-2.770;2022-11-06T08:53:00;12.80;98.80
73572;DHT22;61854;48.510;-2.770;2022-11-06T08:55:29;12.90;98.90
73572;DHT22;61854;48.510;-2.770;2022-11-06T08:57:55;12.90;98.90
73572;DHT22;61854;48.510;-2.770;2022-11-06T09:00:20;12.90;98.90
73572;DHT22;61854;48.510;-2.770;2022-11-06T09:02:46;12.90;98.60
73572;DHT22;61854;48.510;-2.770;2022-11-06T09:05:15;12.90;98.60
73572;DHT22;61854;48.510;-2.770;2022-11-06T09:07:40;12.90;98.50
73572;DHT22;61854;48.510;-2.770;2022-11-06T09:10:06;12.90;98.40
73572;DHT22;61854;48.510;-2.770;2022-11-06T09:12:32;12.80;98.20
73572;DHT22;61854;48.510;-2.770;2022-11-06T09:14:57;12.90;98.10
73572;DHT22;61854;48.510;-2.770;2022-11-06T09:17:23;12.80;97.90
73572;DHT22;61854;48.510;-2.770;2022-11-06T09:19:52;12.90;97.80
73572;DHT22;61854;48.510;-2.770;2022-11-06T09:22:18;12.90;98.00
73572;DHT22;61854;48.510;-2.770;2022-11-06T09:24:44;13.00;97.90
73572;DHT22;61854;48.510;-2.770;2022-11-06T09:27:10;13.10;97.80
73572;DHT22;61854;48.510;-2.770;2022-11-06T09:29:36;13.10;97.60
73572;DHT22;61854;48.510;-2.770;2022-11-06T09:32:05;13.20;97.30
73572;DHT22;61854;48.510;-2.770;2022-11-06T09:34:32;13.20;97.40
73572;DHT22;61854;48.510;-2.770;2022-11-06T09:37:03;13.20;97.40
73572;DHT22;61854;48.510;-2.770;2022-11-06T09:39:29;13.30;97.70
73572;DHT22;61854;48.510;-2.770;2022-11-06T09:42:00;13.40;97.30
73572;DHT22;61854;48.510;-2.770;2022-11-06T09:46:57;13.50;97.30
73572;DHT22;61854;48.510;-2.770;2022-11-06T09:49:34;13.60;96.70
73572;DHT22;61854;48.510;-2.770;2022-11-06T09:52:19;13.60;96.60
73572;DHT22;61854;48.510;-2.770;2022-11-06T09:55:09;13.70;96.40
73572;DHT22;61854;48.510;-2.770;2022-11-06T09:57:41;13.70;96.80
73572;DHT22;61854;48.510;-2.770;2022-11-06T10:00:12;13.90;96.10
73572;DHT22;61854;48.510;-2.770;2022-11-06T10:02:48;13.90;95.50
73572;DHT22;61854;48.510;-2.770;2022-11-06T10:07:46;13.90;95.20
73572;DHT22;61854;48.510;-2.770;2022-11-06T10:10:17;13.90;95.70
73572;DHT22;61854;48.510;-2.770;2022-11-06T10:12:52;13.80;95.60
73572;DHT22;61854;48.510;-2.770;2022-11-06T10:23:57;14.00;95.70
73572;DHT22;61854;48.510;-2.770;2022-11-06T10:26:39;14.10;95.40
73572;DHT22;61854;48.510;-2.770;2022-11-06T10:34:26;14.30;94.60
73572;DHT22;61854;48.510;-2.770;2022-11-06T10:37:07;14.30;94.00
73572;DHT22;61854;48.510;-2.770;2022-11-06T10:39:35;14.30;93.40
73572;DHT22;61854;48.510;-2.770;2022-11-06T10:42:11;14.30;93.70
73572;DHT22;61854;48.510;-2.770;2022-11-06T10:44:41;14.40;93.30
73572;DHT22;61854;48.510;-2.770;2022-11-06T10:47:21;14.60;93.20
73572;DHT22;61854;48.510;-2.770;2022-11-06T10:49:48;14.80;92.50
73572;DHT22;61854;48.510;-2.770;2022-11-06T11:00:03;15.00;88.10
73572;DHT22;61854;48.510;-2.770;2022-11-06T11:02:35;15.00;89.60
73572;DHT22;61854;48.510;-2.770;2022-11-06T11:05:06;15.00;88.70
73572;DHT22;61854;48.510;-2.770;2022-11-06T11:07:35;14.90;89.00
73572;DHT22;61854;48.510;-2.770;2022-11-06T11:10:30;14.90;87.70
73572;DHT22;61854;48.510;-2.770;2022-11-06T11:12:59;14.80;87.60
73572;DHT22;61854;48.510;-2.770;2022-11-06T11:15:26;14.70;88.20
73572;DHT22;61854;48.510;-2.770;2022-11-06T11:20:45;14.50;89.60
73572;DHT22;61854;48.510;-2.770;2022-11-06T11:25:53;14.50;90.30
73572;DHT22;61854;48.510;-2.770;2022-11-06T11:28:31;14.60;89.80
73572;DHT22;61854;48.510;-2.770;2022-11-06T11:33:29;14.90;86.80
73572;DHT22;61854;48.510;-2.770;2022-11-06T11:35:54;15.00;86.90
73572;DHT22;61854;48.510;-2.770;2022-11-06T11:38:20;14.80;89.00
73572;DHT22;61854;48.510;-2.770;2022-11-06T11:40:47;14.40;90.70
73572;DHT22;61854;48.510;-2.770;2022-11-06T11:43:29;14.20;91.80
73572;DHT22;61854;48.510;-2.770;2022-11-06T11:46:04;14.10;92.40
73572;DHT22;61854;48.510;-2.770;2022-11-06T11:53:44;14.20;93.80
73572;DHT22;61854;48.510;-2.770;2022-11-06T11:56:16;14.20;93.90
73572;DHT22;61854;48.510;-2.770;2022-11-06T11:58:48;14.10;94.30
73572;DHT22;61854;48.510;-2.770;2022-11-06T12:01:15;14.00;93.90
73572;DHT22;61854;48.510;-2.770;2022-11-06T12:03:44;14.00;94.40
73572;DHT22;61854;48.510;-2.770;2022-11-06T12:06:14;13.90;93.50
73572;DHT22;61854;48.510;-2.770;2022-11-06T12:08:48;13.90;93.90
73572;DHT22;61854;48.510;-2.770;2022-11-06T12:11:26;13.90;94.40
73572;DHT22;61854;48.510;-2.770;2022-11-06T12:14:15;13.90;94.40
73572;DHT22;61854;48.510;-2.770;2022-11-06T12:16:44;13.80;94.70
73572;DHT22;61854;48.510;-2.770;2022-11-06T12:19:11;13.80;95.00
73572;DHT22;61854;48.510;-2.770;2022-11-06T12:21:38;13.90;94.20
73572;DHT22;61854;48.510;-2.770;2022-11-06T12:24:17;14.00;94.80
73572;DHT22;61854;48.510;-2.770;2022-11-06T12:26:51;14.00;94.40
73572;DHT22;61854;48.510;-2.770;2022-11-06T12:34:37;13.90;93.20
73572;DHT22;61854;48.510;-2.770;2022-11-06T12:39:56;13.80;92.60
73572;DHT22;61854;48.510;-2.770;2022-11-06T12:42:29;13.80;92.30
73572;DHT22;61854;48.510;-2.770;2022-11-06T12:44:55;13.80;92.20
73572;DHT22;61854;48.510;-2.770;2022-11-06T12:55:34;14.10;92.20
73572;DHT22;61854;48.510;-2.770;2022-11-06T13:07:16;14.40;90.30
73572;DHT22;61854;48.510;-2.770;2022-11-06T13:12:22;14.50;89.40
73572;DHT22;61854;48.510;-2.770;2022-11-06T13:15:19;14.50;89.90
73572;DHT22;61854;48.510;-2.770;2022-11-06T13:17:56;14.60;90.10
73572;DHT22;61854;48.510;-2.770;2022-11-06T13:20:33;14.70;90.00
73572;DHT22;61854;48.510;-2.770;2022-11-06T13:25:59;15.20;89.20
73572;DHT22;61854;48.510;-2.770;2022-11-06T13:28:42;16.20;84.70
73572;DHT22;61854;48.510;-2.770;2022-11-06T13:31:11;17.00;79.20
73572;DHT22;61854;48.510;-2.770;2022-11-06T13:33:53;17.60;77.80
73572;DHT22;61854;48.510;-2.770;2022-11-06T13:36:22;18.10;75.50
73572;DHT22;61854;48.510;-2.770;2022-11-06T13:38:53;18.40;71.30
73572;DHT22;61854;48.510;-2.770;2022-11-06T13:41:26;18.60;71.20
73572;DHT22;61854;48.510;-2.770;2022-11-06T13:44:03;18.90;70.70
73572;DHT22;61854;48.510;-2.770;2022-11-06T13:49:31;18.90;67.30
73572;DHT22;61854;48.510;-2.770;2022-11-06T13:52:07;19.00;65.50
73572;DHT22;61854;48.510;-2.770;2022-11-06T14:00:44;19.10;63.70
73572;DHT22;61854;48.510;-2.770;2022-11-06T14:06:04;19.40;65.40
73572;DHT22;61854;48.510;-2.770;2022-11-06T14:08:51;19.50;63.50
73572;DHT22;61854;48.510;-2.770;2022-11-06T14:11:19;19.50;63.90
73572;DHT22;61854;48.510;-2.770;2022-11-06T14:16:44;19.60;62.00
73572;DHT22;61854;48.510;-2.770;2022-11-06T14:19:30;19.40;64.00
73572;DHT22;61854;48.510;-2.770;2022-11-06T14:24:37;20.00;61.70
73572;DHT22;61854;48.510;-2.770;2022-11-06T14:27:10;20.00;60.00
73572;DHT22;61854;48.510;-2.770;2022-11-06T14:34:48;20.30;59.60
73572;DHT22;61854;48.510;-2.770;2022-11-06T14:42:32;20.20;58.50
73572;DHT22;61854;48.510;-2.770;2022-11-06T14:45:11;20.40;57.30
73572;DHT22;61854;48.510;-2.770;2022-11-06T14:53:02;20.60;55.70
73572;DHT22;61854;48.510;-2.770;2022-11-06T14:57:57;20.20;55.50
73572;DHT22;61854;48.510;-2.770;2022-11-06T15:01:11;20.20;55.50
73572;DHT22;61854;48.510;-2.770;2022-11-06T15:06:33;20.10;55.70
73572;DHT22;61854;48.510;-2.770;2022-11-06T15:17:15;20.30;55.20
73572;DHT22;61854;48.510;-2.770;2022-11-06T15:20:25;20.00;56.30
73572;DHT22;61854;48.510;-2.770;2022-11-06T15:28:12;19.50;57.00
73572;DHT22;61854;48.510;-2.770;2022-11-06T15:30:44;19.50;57.80
73572;DHT22;61854;48.510;-2.770;2022-11-06T15:33:16;19.50;58.90
73572;DHT22;61854;48.510;-2.770;2022-11-06T15:35:45;19.40;58.90
73572;DHT22;61854;48.510;-2.770;2022-11-06T15:38:17;19.10;60.20
73572;DHT22;61854;48.510;-2.770;2022-11-06T15:40:44;18.70;61.70
73572;DHT22;61854;48.510;-2.770;2022-11-06T15:43:24;18.10;63.50
73572;DHT22;61854;48.510;-2.770;2022-11-06T15:46:12;17.90;64.80
73572;DHT22;61854;48.510;-2.770;2022-11-06T15:48:39;17.40;66.60
73572;DHT22;61854;48.510;-2.770;2022-11-06T15:53:45;16.40;70.60
73572;DHT22;61854;48.510;-2.770;2022-11-06T15:56:13;16.00;72.40
73572;DHT22;61854;48.510;-2.770;2022-11-06T15:58:39;15.70;73.70
73572;DHT22;61854;48.510;-2.770;2022-11-06T16:01:06;15.50;74.50
73572;DHT22;61854;48.510;-2.770;2022-11-06T16:03:50;15.30;75.10
73572;DHT22;61854;48.510;-2.770;2022-11-06T16:06:16;15.20;74.10
73572;DHT22;61854;48.510;-2.770;2022-11-06T16:08:43;15.10;74.60
73572;DHT22;61854;48.510;-2.770;2022-11-06T16:11:17;15.00;74.10
73572;DHT22;61854;48.510;-2.770;2022-11-06T16:13:44;14.90;74.00
73572;DHT22;61854;48.510;-2.770;2022-11-06T16:16:37;14.80;73.70
73572;DHT22;61854;48.510;-2.770;2022-11-06T16:19:05;14.70;74.40
73572;DHT22;61854;48.510;-2.770;2022-11-06T16:21:40;14.60;74.80
73572;DHT22;61854;48.510;-2.770;2022-11-06T16:24:14;14.60;74.80
73572;DHT22;61854;48.510;-2.770;2022-11-06T16:26:49;14.50;74.90
73572;DHT22;61854;48.510;-2.770;2022-11-06T16:29:28;14.40;75.40
73572;DHT22;61854;48.510;-2.770;2022-11-06T16:32:07;14.30;76.40
73572;DHT22;61854;48.510;-2.770;2022-11-06T16:34:43;14.20;77.50
73572;DHT22;61854;48.510;-2.770;2022-11-06T16:39:46;14.00;78.40
73572;DHT22;61854;48.510;-2.770;2022-11-06T16:42:23;14.00;78.70
73572;DHT22;61854;48.510;-2.770;2022-11-06T16:45:18;13.90;79.10
73572;DHT22;61854;48.510;-2.770;2022-11-06T16:50:49;13.90;80.60
73572;DHT22;61854;48.510;-2.770;2022-11-06T16:53:23;13.80;81.10
73572;DHT22;61854;48.510;-2.770;2022-11-06T16:55:57;13.70;81.30
73572;DHT22;61854;48.510;-2.770;2022-11-06T16:58:24;13.60;81.00
73572;DHT22;61854;48.510;-2.770;2022-11-06T17:01:01;13.60;80.90
73572;DHT22;61854;48.510;-2.770;2022-11-06T17:03:37;13.60;80.60
73572;DHT22;61854;48.510;-2.770;2022-11-06T17:06:04;13.50;81.20
73572;DHT22;61854;48.510;-2.770;2022-11-06T17:08:37;13.50;81.90
73572;DHT22;61854;48.510;-2.770;2022-11-06T17:13:40;13.30;83.40
73572;DHT22;61854;48.510;-2.770;2022-11-06T17:16:15;13.30;84.00
73572;DHT22;61854;48.510;-2.770;2022-11-06T17:18:42;13.30;83.00
73572;DHT22;61854;48.510;-2.770;2022-11-06T17:21:24;13.40;83.20
73572;DHT22;61854;48.510;-2.770;2022-11-06T17:23:50;13.30;83.30
73572;DHT22;61854;48.510;-2.770;2022-11-06T17:26:28;13.30;83.50
73572;DHT22;61854;48.510;-2.770;2022-11-06T17:28:55;13.30;83.30
73572;DHT22;61854;48.510;-2.770;2022-11-06T17:31:22;13.30;83.40
73572;DHT22;61854;48.510;-2.770;2022-11-06T17:33:51;13.20;83.80
73572;DHT22;61854;48.510;-2.770;2022-11-06T17:36:18;13.20;83.80
73572;DHT22;61854;48.510;-2.770;2022-11-06T17:38:45;13.20;84.00
73572;DHT22;61854;48.510;-2.770;2022-11-06T17:41:11;13.20;85.00
73572;DHT22;61854;48.510;-2.770;2022-11-06T17:43:37;13.20;84.30
73572;DHT22;61854;48.510;-2.770;2022-11-06T17:46:02;13.20;84.50
73572;DHT22;61854;48.510;-2.770;2022-11-06T17:48:28;13.20;84.50
73572;DHT22;61854;48.510;-2.770;2022-11-06T17:50:54;13.10;84.70
73572;DHT22;61854;48.510;-2.770;2022-11-06T17:53:39;13.00;85.40
73572;DHT22;61854;48.510;-2.770;2022-11-06T17:56:05;13.10;85.50
73572;DHT22;61854;48.510;-2.770;2022-11-06T17:58:31;13.00;85.80
73572;DHT22;61854;48.510;-2.770;2022-11-06T18:01:06;13.00;86.10
73572;DHT22;61854;48.510;-2.770;2022-11-06T18:03:31;13.00;86.40
73572;DHT22;61854;48.510;-2.770;2022-11-06T18:05:57;13.00;86.70
73572;DHT22;61854;48.510;-2.770;2022-11-06T18:08:23;12.90;87.10
73572;DHT22;61854;48.510;-2.770;2022-11-06T18:10:55;12.90;87.50
73572;DHT22;61854;48.510;-2.770;2022-11-06T18:13:21;12.90;87.60
73572;DHT22;61854;48.510;-2.770;2022-11-06T18:15:47;12.90;87.70
73572;DHT22;61854;48.510;-2.770;2022-11-06T18:18:13;12.90;88.40
73572;DHT22;61854;48.510;-2.770;2022-11-06T18:20:45;12.90;88.30
73572;DHT22;61854;48.510;-2.770;2022-11-06T18:23:12;12.90;88.30
73572;DHT22;61854;48.510;-2.770;2022-11-06T18:25:38;12.90;88.50